Weeki Wachee, Florida
Current Conditions -  °F | °C
As of 12:53 AM on Thursday 29 Jan 2015 (Local Time) from KBKV Reporting Station
Clear Clear  
Wind Chill: 37°   Ceiling: Unl
Heat Index: 37°   Visibility: 7mi
Dew Point: 35°   Wind: 0mph
Humidity: 93%   Direction: NA
Pressure: 30.31"   Gusts: NA
Location:  28.4982°N, 82.633°W
Report Text: KBKV 290553Z AUTO 00000KT 7SM CLR 03/02 A3031 RMK AO2 SLP262 60000 T00280017 10100 20028 51005
Loading
Personal Weather Stations






























Interactive Weather Map New forecast layout! Learn more

10-Day Weather Forecast

Advertisements
Track Severe Weather on mobile